sensor_id;sensor_type;location;lat;lon;timestamp;temperature;humidity
64111;DHT22;50401;48.188;11.566;2023-06-22T00:00:51;21.50;75.28
64111;DHT22;50401;48.188;11.566;2023-06-22T00:03:18;21.31;75.89
64111;DHT22;50401;48.188;11.566;2023-06-22T00:05:45;21.34;75.88
64111;DHT22;50401;48.188;11.566;2023-06-22T00:08:10;21.54;75.36
64111;DHT22;50401;48.188;11.566;2023-06-22T00:10:36;21.74;74.67
64111;DHT22;50401;48.188;11.566;2023-06-22T00:13:01;21.71;74.70
64111;DHT22;50401;48.188;11.566;2023-06-22T00:15:27;21.54;75.11
64111;DHT22;50401;48.188;11.566;2023-06-22T00:17:52;21.57;75.02
64111;DHT22;50401;48.188;11.566;2023-06-22T00:20:18;21.73;74.44
64111;DHT22;50401;48.188;11.566;2023-06-22T00:22:44;21.52;75.04
64111;DHT22;50401;48.188;11.566;2023-06-22T00:25:10;21.17;75.77
64111;DHT22;50401;48.188;11.566;2023-06-22T00:27:36;21.15;75.74
64111;DHT22;50401;48.188;11.566;2023-06-22T00:30:02;21.19;75.45
64111;DHT22;50401;48.188;11.566;2023-06-22T00:32:28;21.08;75.72
64111;DHT22;50401;48.188;11.566;2023-06-22T00:34:53;21.11;75.63
64111;DHT22;50401;48.188;11.566;2023-06-22T00:37:19;21.10;75.60
64111;DHT22;50401;48.188;11.566;2023-06-22T00:39:44;21.11;75.45
64111;DHT22;50401;48.188;11.566;2023-06-22T00:42:10;21.14;75.19
64111;DHT22;50401;48.188;11.566;2023-06-22T00:44:36;21.18;74.94
64111;DHT22;50401;48.188;11.566;2023-06-22T00:47:02;21.15;75.07
64111;DHT22;50401;48.188;11.566;2023-06-22T00:49:28;21.11;75.08
64111;DHT22;50401;48.188;11.566;2023-06-22T00:51:54;21.10;75.16
64111;DHT22;50401;48.188;11.566;2023-06-22T00:54:20;21.01;75.38
64111;DHT22;50401;48.188;11.566;2023-06-22T00:56:56;21.07;75.28
64111;DHT22;50401;48.188;11.566;2023-06-22T00:59:23;20.88;75.82
64111;DHT22;50401;48.188;11.566;2023-06-22T01:01:49;20.94;75.78
64111;DHT22;50401;48.188;11.566;2023-06-22T01:04:15;20.83;76.20
64111;DHT22;50401;48.188;11.566;2023-06-22T01:09:49;20.98;75.72
64111;DHT22;50401;48.188;11.566;2023-06-22T01:12:18;20.98;75.83
64111;DHT22;50401;48.188;11.566;2023-06-22T01:14:50;20.79;76.16
64111;DHT22;50401;48.188;11.566;2023-06-22T01:17:19;20.77;76.45
64111;DHT22;50401;48.188;11.566;2023-06-22T01:19:46;20.66;76.73
64111;DHT22;50401;48.188;11.566;2023-06-22T01:22:15;20.67;76.63
64111;DHT22;50401;48.188;11.566;2023-06-22T01:25:06;20.69;76.48
64111;DHT22;50401;48.188;11.566;2023-06-22T01:30:27;20.60;76.78
64111;DHT22;50401;48.188;11.566;2023-06-22T01:32:56;20.62;76.63
64111;DHT22;50401;48.188;11.566;2023-06-22T01:35:22;20.53;76.95
64111;DHT22;50401;48.188;11.566;2023-06-22T01:37:48;20.65;76.48
64111;DHT22;50401;48.188;11.566;2023-06-22T01:40:15;20.69;76.40
64111;DHT22;50401;48.188;11.566;2023-06-22T01:42:41;20.74;76.25
64111;DHT22;50401;48.188;11.566;2023-06-22T01:45:09;20.60;76.51
64111;DHT22;50401;48.188;11.566;2023-06-22T01:47:35;20.53;76.68
64111;DHT22;50401;48.188;11.566;2023-06-22T01:50:01;20.60;76.57
64111;DHT22;50401;48.188;11.566;2023-06-22T01:52:26;20.80;76.10
64111;DHT22;50401;48.188;11.566;2023-06-22T01:54:51;21.08;75.29
64111;DHT22;50401;48.188;11.566;2023-06-22T01:57:17;21.26;74.60
64111;DHT22;50401;48.188;11.566;2023-06-22T02:00:10;21.19;74.50
64111;DHT22;50401;48.188;11.566;2023-06-22T02:02:39;21.05;75.04
64111;DHT22;50401;48.188;11.566;2023-06-22T02:05:11;21.07;75.16
64111;DHT22;50401;48.188;11.566;2023-06-22T02:07:46;21.07;74.87
64111;DHT22;50401;48.188;11.566;2023-06-22T02:10:15;20.95;75.25
64111;DHT22;50401;48.188;11.566;2023-06-22T02:12:42;21.05;75.01
64111;DHT22;50401;48.188;11.566;2023-06-22T02:15:09;20.90;75.41
64111;DHT22;50401;48.188;11.566;2023-06-22T02:17:35;20.60;76.25
64111;DHT22;50401;48.188;11.566;2023-06-22T02:20:02;20.49;76.54
64111;DHT22;50401;48.188;11.566;2023-06-22T02:22:33;20.59;76.37
64111;DHT22;50401;48.188;11.566;2023-06-22T02:24:59;20.74;76.13
64111;DHT22;50401;48.188;11.566;2023-06-22T02:27:24;21.05;75.51
64111;DHT22;50401;48.188;11.566;2023-06-22T02:29:49;21.21;75.13
64111;DHT22;50401;48.188;11.566;2023-06-22T02:32:15;21.31;75.09
64111;DHT22;50401;48.188;11.566;2023-06-22T02:34:42;21.32;75.02
64111;DHT22;50401;48.188;11.566;2023-06-22T02:37:08;21.39;74.92
64111;DHT22;50401;48.188;11.566;2023-06-22T02:39:36;21.36;75.00
64111;DHT22;50401;48.188;11.566;2023-06-22T02:42:02;21.52;74.49
64111;DHT22;50401;48.188;11.566;2023-06-22T02:44:27;21.53;74.24
64111;DHT22;50401;48.188;11.566;2023-06-22T02:46:53;21.57;74.02
64111;DHT22;50401;48.188;11.566;2023-06-22T02:49:19;21.52;74.05
64111;DHT22;50401;48.188;11.566;2023-06-22T02:51:46;21.38;74.33
64111;DHT22;50401;48.188;11.566;2023-06-22T02:54:12;21.28;74.67
64111;DHT22;50401;48.188;11.566;2023-06-22T02:56:37;21.19;75.19
64111;DHT22;50401;48.188;11.566;2023-06-22T02:59:03;21.12;75.36
64111;DHT22;50401;48.188;11.566;2023-06-22T03:01:29;21.05;75.65
64111;DHT22;50401;48.188;11.566;2023-06-22T03:03:56;21.00;75.86
64111;DHT22;50401;48.188;11.566;2023-06-22T03:06:21;20.93;76.14
64111;DHT22;50401;48.188;11.566;2023-06-22T03:08:57;20.84;76.36
64111;DHT22;50401;48.188;11.566;2023-06-22T03:11:22;20.90;76.30
64111;DHT22;50401;48.188;11.566;2023-06-22T03:13:48;20.85;76.38
64111;DHT22;50401;48.188;11.566;2023-06-22T03:16:13;20.85;76.41
64111;DHT22;50401;48.188;11.566;2023-06-22T03:18:38;20.70;76.82
64111;DHT22;50401;48.188;11.566;2023-06-22T03:21:04;20.67;76.99
64111;DHT22;50401;48.188;11.566;2023-06-22T03:23:30;20.62;77.10
64111;DHT22;50401;48.188;11.566;2023-06-22T03:25:55;20.52;77.41
64111;DHT22;50401;48.188;11.566;2023-06-22T03:28:21;20.63;77.28
64111;DHT22;50401;48.188;11.566;2023-06-22T03:30:47;20.43;77.72
64111;DHT22;50401;48.188;11.566;2023-06-22T03:33:12;20.18;78.26
64111;DHT22;50401;48.188;11.566;2023-06-22T03:35:37;20.20;78.46
64111;DHT22;50401;48.188;11.566;2023-06-22T03:38:03;19.86;79.28
64111;DHT22;50401;48.188;11.566;2023-06-22T03:40:29;19.70;79.79
64111;DHT22;50401;48.188;11.566;2023-06-22T03:42:55;19.65;80.10
64111;DHT22;50401;48.188;11.566;2023-06-22T03:45:20;19.73;79.90
64111;DHT22;50401;48.188;11.566;2023-06-22T03:47:46;19.62;80.23
64111;DHT22;50401;48.188;11.566;2023-06-22T03:50:11;19.72;80.13
64111;DHT22;50401;48.188;11.566;2023-06-22T03:52:36;19.63;80.14
64111;DHT22;50401;48.188;11.566;2023-06-22T03:55:02;19.66;80.31
64111;DHT22;50401;48.188;11.566;2023-06-22T03:57:27;19.58;80.46
64111;DHT22;50401;48.188;11.566;2023-06-22T03:59:56;19.86;79.98
64111;DHT22;50401;48.188;11.566;2023-06-22T04:02:21;20.18;79.22
64111;DHT22;50401;48.188;11.566;2023-06-22T04:04:46;20.42;78.47
64111;DHT22;50401;48.188;11.566;2023-06-22T04:07:12;20.53;78.08
64111;DHT22;50401;48.188;11.566;2023-06-22T04:09:37;20.65;77.72
64111;DHT22;50401;48.188;11.566;2023-06-22T04:12:03;20.80;77.37
64111;DHT22;50401;48.188;11.566;2023-06-22T04:14:29;20.84;77.40
64111;DHT22;50401;48.188;11.566;2023-06-22T04:16:54;20.98;76.98
64111;DHT22;50401;48.188;11.566;2023-06-22T04:19:20;21.05;76.79
64111;DHT22;50401;48.188;11.566;2023-06-22T04:21:45;21.21;76.46
64111;DHT22;50401;48.188;11.566;2023-06-22T04:24:12;21.22;76.47
64111;DHT22;50401;48.188;11.566;2023-06-22T04:26:38;20.73;77.62
64111;DHT22;50401;48.188;11.566;2023-06-22T04:29:06;20.69;77.87
64111;DHT22;50401;48.188;11.566;2023-06-22T04:31:36;20.65;78.00
64111;DHT22;50401;48.188;11.566;2023-06-22T04:34:03;20.72;78.18
64111;DHT22;50401;48.188;11.566;2023-06-22T04:36:36;21.02;77.32
64111;DHT22;50401;48.188;11.566;2023-06-22T04:39:09;21.17;77.07
64111;DHT22;50401;48.188;11.566;2023-06-22T04:41:39;20.72;78.04
64111;DHT22;50401;48.188;11.566;2023-06-22T04:44:12;20.62;78.29
64111;DHT22;50401;48.188;11.566;2023-06-22T04:46:38;20.48;78.88
64111;DHT22;50401;48.188;11.566;2023-06-22T04:49:07;20.53;78.67
64111;DHT22;50401;48.188;11.566;2023-06-22T04:51:37;20.55;78.79
64111;DHT22;50401;48.188;11.566;2023-06-22T04:54:03;20.55;78.89
64111;DHT22;50401;48.188;11.566;2023-06-22T04:56:31;20.88;78.13
64111;DHT22;50401;48.188;11.566;2023-06-22T04:58:56;21.21;77.11
64111;DHT22;50401;48.188;11.566;2023-06-22T05:01:22;21.69;75.60
64111;DHT22;50401;48.188;11.566;2023-06-22T05:03:48;21.22;76.46
64111;DHT22;50401;48.188;11.566;2023-06-22T05:06:14;21.35;76.19
64111;DHT22;50401;48.188;11.566;2023-06-22T05:08:39;21.63;75.25
64111;DHT22;50401;48.188;11.566;2023-06-22T05:11:05;21.45;75.99
64111;DHT22;50401;48.188;11.566;2023-06-22T05:13:30;21.43;75.74
64111;DHT22;50401;48.188;11.566;2023-06-22T05:15:56;21.45;75.89
64111;DHT22;50401;48.188;11.566;2023-06-22T05:18:27;21.94;74.98
64111;DHT22;50401;48.188;11.566;2023-06-22T05:20:54;21.76;75.10
64111;DHT22;50401;48.188;11.566;2023-06-22T05:23:20;22.05;73.93
64111;DHT22;50401;48.188;11.566;2023-06-22T05:25:45;22.21;73.63
64111;DHT22;50401;48.188;11.566;2023-06-22T05:28:10;22.32;73.53
64111;DHT22;50401;48.188;11.566;2023-06-22T05:30:37;21.94;74.08
64111;DHT22;50401;48.188;11.566;2023-06-22T05:33:02;22.77;72.30
64111;DHT22;50401;48.188;11.566;2023-06-22T05:35:27;23.57;70.37
64111;DHT22;50401;48.188;11.566;2023-06-22T05:37:54;24.23;68.31
64111;DHT22;50401;48.188;11.566;2023-06-22T05:40:20;24.24;67.56
64111;DHT22;50401;48.188;11.566;2023-06-22T05:42:46;24.24;67.67
64111;DHT22;50401;48.188;11.566;2023-06-22T05:45:11;23.92;68.25
64111;DHT22;50401;48.188;11.566;2023-06-22T05:47:36;23.78;68.81
64111;DHT22;50401;48.188;11.566;2023-06-22T05:50:02;24.43;66.96
64111;DHT22;50401;48.188;11.566;2023-06-22T05:52:32;24.26;66.92
64111;DHT22;50401;48.188;11.566;2023-06-22T05:54:57;24.93;65.13
64111;DHT22;50401;48.188;11.566;2023-06-22T05:57:22;24.57;65.82
64111;DHT22;50401;48.188;11.566;2023-06-22T05:59:48;24.51;66.53
64111;DHT22;50401;48.188;11.566;2023-06-22T06:02:13;25.22;64.28
64111;DHT22;50401;48.188;11.566;2023-06-22T06:04:39;25.34;64.07
64111;DHT22;50401;48.188;11.566;2023-06-22T06:07:04;25.48;63.22
64111;DHT22;50401;48.188;11.566;2023-06-22T06:09:30;24.85;65.75
64111;DHT22;50401;48.188;11.566;2023-06-22T06:11:55;25.86;62.75
64111;DHT22;50401;48.188;11.566;2023-06-22T06:14:21;26.21;61.42
64111;DHT22;50401;48.188;11.566;2023-06-22T06:16:46;26.14;61.42
64111;DHT22;50401;48.188;11.566;2023-06-22T06:19:11;25.20;63.60
64111;DHT22;50401;48.188;11.566;2023-06-22T06:21:37;25.28;63.65
64111;DHT22;50401;48.188;11.566;2023-06-22T06:24:02;24.53;66.26
64111;DHT22;50401;48.188;11.566;2023-06-22T06:26:28;24.71;65.45
64111;DHT22;50401;48.188;11.566;2023-06-22T06:28:56;25.45;63.94
64111;DHT22;50401;48.188;11.566;2023-06-22T06:31:24;26.10;62.53
64111;DHT22;50401;48.188;11.566;2023-06-22T06:33:50;24.78;65.33
64111;DHT22;50401;48.188;11.566;2023-06-22T06:36:15;25.33;64.20
64111;DHT22;50401;48.188;11.566;2023-06-22T06:38:41;26.20;62.43
64111;DHT22;50401;48.188;11.566;2023-06-22T06:41:07;25.84;63.11
64111;DHT22;50401;48.188;11.566;2023-06-22T06:43:32;25.88;63.37
64111;DHT22;50401;48.188;11.566;2023-06-22T06:45:57;27.49;59.14
64111;DHT22;50401;48.188;11.566;2023-06-22T06:48:23;27.03;60.29
64111;DHT22;50401;48.188;11.566;2023-06-22T06:50:48;25.96;62.58
64111;DHT22;50401;48.188;11.566;2023-06-22T06:53:13;26.71;61.44
64111;DHT22;50401;48.188;11.566;2023-06-22T06:55:39;27.83;58.37
64111;DHT22;50401;48.188;11.566;2023-06-22T06:58:04;27.03;60.86
64111;DHT22;50401;48.188;11.566;2023-06-22T07:00:32;28.15;58.25
64111;DHT22;50401;48.188;11.566;2023-06-22T07:02:58;29.10;55.83
64111;DHT22;50401;48.188;11.566;2023-06-22T07:05:23;30.39;52.16
64111;DHT22;50401;48.188;11.566;2023-06-22T07:07:49;31.05;50.74
64111;DHT22;50401;48.188;11.566;2023-06-22T07:10:14;31.33;49.67
64111;DHT22;50401;48.188;11.566;2023-06-22T07:12:40;28.84;54.78
64111;DHT22;50401;48.188;11.566;2023-06-22T07:15:08;30.56;52.18
64111;DHT22;50401;48.188;11.566;2023-06-22T07:17:34;29.29;54.47
64111;DHT22;50401;48.188;11.566;2023-06-22T07:20:00;30.76;51.72
64111;DHT22;50401;48.188;11.566;2023-06-22T07:22:26;29.58;53.00
64111;DHT22;50401;48.188;11.566;2023-06-22T07:24:51;28.99;55.84
64111;DHT22;50401;48.188;11.566;2023-06-22T07:27:17;30.91;51.15
64111;DHT22;50401;48.188;11.566;2023-06-22T07:29:44;30.25;51.65
64111;DHT22;50401;48.188;11.566;2023-06-22T07:32:09;28.15;57.13
64111;DHT22;50401;48.188;11.566;2023-06-22T07:34:35;30.51;52.06
64111;DHT22;50401;48.188;11.566;2023-06-22T07:37:00;31.98;49.00
64111;DHT22;50401;48.188;11.566;2023-06-22T07:39:26;29.01;55.03
64111;DHT22;50401;48.188;11.566;2023-06-22T07:41:52;32.04;48.89
64111;DHT22;50401;48.188;11.566;2023-06-22T07:44:17;33.27;46.35
64111;DHT22;50401;48.188;11.566;2023-06-22T07:47:02;34.20;44.44
64111;DHT22;50401;48.188;11.566;2023-06-22T07:49:28;34.36;44.25
64111;DHT22;50401;48.188;11.566;2023-06-22T07:51:54;30.71;51.82
64111;DHT22;50401;48.188;11.566;2023-06-22T07:54:19;28.80;55.73
64111;DHT22;50401;48.188;11.566;2023-06-22T07:56:49;27.76;58.38
64111;DHT22;50401;48.188;11.566;2023-06-22T07:59:14;29.24;55.40
64111;DHT22;50401;48.188;11.566;2023-06-22T08:01:39;29.70;53.96
64111;DHT22;50401;48.188;11.566;2023-06-22T08:04:05;29.81;53.92
64111;DHT22;50401;48.188;11.566;2023-06-22T08:06:31;31.77;49.89
64111;DHT22;50401;48.188;11.566;2023-06-22T08:08:56;30.90;50.79
64111;DHT22;50401;48.188;11.566;2023-06-22T08:11:24;32.32;48.48
64111;DHT22;50401;48.188;11.566;2023-06-22T08:13:50;31.14;51.14
64111;DHT22;50401;48.188;11.566;2023-06-22T08:16:15;30.98;51.51
64111;DHT22;50401;48.188;11.566;2023-06-22T08:18:41;28.52;57.05
64111;DHT22;50401;48.188;11.566;2023-06-22T08:21:06;27.13;60.68
64111;DHT22;50401;48.188;11.566;2023-06-22T08:23:32;27.63;59.95
64111;DHT22;50401;48.188;11.566;2023-06-22T08:25:57;29.14;56.24
64111;DHT22;50401;48.188;11.566;2023-06-22T08:28:23;30.56;52.74
64111;DHT22;50401;48.188;11.566;2023-06-22T08:30:48;30.87;51.41
64111;DHT22;50401;48.188;11.566;2023-06-22T08:33:13;29.10;55.55
64111;DHT22;50401;48.188;11.566;2023-06-22T08:35:39;29.19;55.08
64111;DHT22;50401;48.188;11.566;2023-06-22T08:38:04;29.25;55.34
64111;DHT22;50401;48.188;11.566;2023-06-22T08:40:30;29.88;53.89
64111;DHT22;50401;48.188;11.566;2023-06-22T08:42:56;29.12;55.51
64111;DHT22;50401;48.188;11.566;2023-06-22T08:45:21;28.08;58.16
64111;DHT22;50401;48.188;11.566;2023-06-22T08:47:47;28.79;56.70
64111;DHT22;50401;48.188;11.566;2023-06-22T08:50:13;29.06;55.91
64111;DHT22;50401;48.188;11.566;2023-06-22T08:52:39;29.46;55.16
64111;DHT22;50401;48.188;11.566;2023-06-22T08:55:08;29.36;54.93
64111;DHT22;50401;48.188;11.566;2023-06-22T08:57:34;29.46;54.47
64111;DHT22;50401;48.188;11.566;2023-06-22T09:00:02;28.89;55.58
64111;DHT22;50401;48.188;11.566;2023-06-22T09:02:30;29.96;53.64
64111;DHT22;50401;48.188;11.566;2023-06-22T09:04:57;29.39;54.71
64111;DHT22;50401;48.188;11.566;2023-06-22T09:07:23;29.45;54.73
64111;DHT22;50401;48.188;11.566;2023-06-22T09:09:50;29.45;54.49
64111;DHT22;50401;48.188;11.566;2023-06-22T09:12:15;30.67;52.05
64111;DHT22;50401;48.188;11.566;2023-06-22T09:14:40;31.21;50.72
64111;DHT22;50401;48.188;11.566;2023-06-22T09:17:06;30.32;52.11
64111;DHT22;50401;48.188;11.566;2023-06-22T09:19:31;31.12;50.67
64111;DHT22;50401;48.188;11.566;2023-06-22T09:21:57;30.01;53.09
64111;DHT22;50401;48.188;11.566;2023-06-22T09:24:22;29.90;53.19
64111;DHT22;50401;48.188;11.566;2023-06-22T09:26:48;30.49;52.01
64111;DHT22;50401;48.188;11.566;2023-06-22T09:29:13;31.04;50.56
64111;DHT22;50401;48.188;11.566;2023-06-22T09:31:38;31.18;50.47
64111;DHT22;50401;48.188;11.566;2023-06-22T09:34:04;31.01;51.06
64111;DHT22;50401;48.188;11.566;2023-06-22T09:36:29;31.45;49.76
64111;DHT22;50401;48.188;11.566;2023-06-22T09:38:55;31.66;49.16
64111;DHT22;50401;48.188;11.566;2023-06-22T09:41:22;31.60;49.73
64111;DHT22;50401;48.188;11.566;2023-06-22T09:43:47;30.39;51.48
64111;DHT22;50401;48.188;11.566;2023-06-22T09:46:16;30.69;51.02
64111;DHT22;50401;48.188;11.566;2023-06-22T09:48:41;29.91;52.73
64111;DHT22;50401;48.188;11.566;2023-06-22T09:51:07;29.76;53.35
64111;DHT22;50401;48.188;11.566;2023-06-22T09:53:32;30.70;51.68
64111;DHT22;50401;48.188;11.566;2023-06-22T09:56:00;30.24;52.27
64111;DHT22;50401;48.188;11.566;2023-06-22T09:58:25;30.90;51.14
64111;DHT22;50401;48.188;11.566;2023-06-22T10:00:51;30.98;50.68
64111;DHT22;50401;48.188;11.566;2023-06-22T10:03:16;30.83;51.40
64111;DHT22;50401;48.188;11.566;2023-06-22T10:05:41;30.53;52.16
64111;DHT22;50401;48.188;11.566;2023-06-22T10:08:07;30.02;53.02
64111;DHT22;50401;48.188;11.566;2023-06-22T10:10:35;30.49;51.84
64111;DHT22;50401;48.188;11.566;2023-06-22T10:13:09;30.07;53.24
64111;DHT22;50401;48.188;11.566;2023-06-22T10:15:38;30.69;51.82
64111;DHT22;50401;48.188;11.566;2023-06-22T10:18:04;30.31;52.63
64111;DHT22;50401;48.188;11.566;2023-06-22T10:20:29;30.47;52.23
64111;DHT22;50401;48.188;11.566;2023-06-22T10:22:55;30.87;51.41
64111;DHT22;50401;48.188;11.566;2023-06-22T10:25:21;30.91;51.47
64111;DHT22;50401;48.188;11.566;2023-06-22T10:27:46;31.08;51.29
64111;DHT22;50401;48.188;11.566;2023-06-22T10:30:12;31.12;51.31
64111;DHT22;50401;48.188;11.566;2023-06-22T10:32:39;31.05;51.41
64111;DHT22;50401;48.188;11.566;2023-06-22T10:35:05;30.80;52.33
64111;DHT22;50401;48.188;11.566;2023-06-22T10:37:32;30.19;53.73
64111;DHT22;50401;48.188;11.566;2023-06-22T10:39:58;30.52;53.02
64111;DHT22;50401;48.188;11.566;2023-06-22T10:42:24;30.80;52.51
64111;DHT22;50401;48.188;11.566;2023-06-22T10:44:49;30.73;52.18
64111;DHT22;50401;48.188;11.566;2023-06-22T10:47:14;30.73;52.62
64111;DHT22;50401;48.188;11.566;2023-06-22T10:49:41;30.71;52.71
64111;DHT22;50401;48.188;11.566;2023-06-22T10:52:07;30.77;52.34
64111;DHT22;50401;48.188;11.566;2023-06-22T10:54:33;30.53;52.66
64111;DHT22;50401;48.188;11.566;2023-06-22T10:56:59;30.56;53.12
64111;DHT22;50401;48.188;11.566;2023-06-22T10:59:24;30.78;52.36
64111;DHT22;50401;48.188;11.566;2023-06-22T11:01:51;30.70;51.73
64111;DHT22;50401;48.188;11.566;2023-06-22T11:04:17;30.51;52.46
64111;DHT22;50401;48.188;11.566;2023-06-22T11:06:43;30.29;53.18
64111;DHT22;50401;48.188;11.566;2023-06-22T11:09:08;30.27;53.41
64111;DHT22;50401;48.188;11.566;2023-06-22T11:11:34;30.33;52.99
64111;DHT22;50401;48.188;11.566;2023-06-22T11:13:59;30.45;53.08
64111;DHT22;50401;48.188;11.566;2023-06-22T11:16:25;30.21;53.35
64111;DHT22;50401;48.188;11.566;2023-06-22T11:18:50;30.67;52.36
64111;DHT22;50401;48.188;11.566;2023-06-22T11:21:15;30.91;51.96
64111;DHT22;50401;48.188;11.566;2023-06-22T11:23:42;31.08;51.68
64111;DHT22;50401;48.188;11.566;2023-06-22T11:26:07;31.15;51.42
64111;DHT22;50401;48.188;11.566;2023-06-22T11:28:33;31.19;51.09
64111;DHT22;50401;48.188;11.566;2023-06-22T11:30:58;31.18;50.97
64111;DHT22;50401;48.188;11.566;2023-06-22T11:33:24;31.22;50.90
64111;DHT22;50401;48.188;11.566;2023-06-22T11:35:49;31.08;51.04
64111;DHT22;50401;48.188;11.566;2023-06-22T11:38:15;31.42;50.36
64111;DHT22;50401;48.188;11.566;2023-06-22T11:40:41;31.46;50.12
64111;DHT22;50401;48.188;11.566;2023-06-22T11:43:07;31.29;50.54
64111;DHT22;50401;48.188;11.566;2023-06-22T11:45:32;31.47;50.06
64111;DHT22;50401;48.188;11.566;2023-06-22T11:47:58;31.60;49.92
64111;DHT22;50401;48.188;11.566;2023-06-22T11:50:23;31.63;49.88
64111;DHT22;50401;48.188;11.566;2023-06-22T11:52:49;31.56;49.97
64111;DHT22;50401;48.188;11.566;2023-06-22T11:55:14;31.67;49.74
64111;DHT22;50401;48.188;11.566;2023-06-22T11:57:53;31.67;50.07
64111;DHT22;50401;48.188;11.566;2023-06-22T12:00:19;31.53;50.44
64111;DHT22;50401;48.188;11.566;2023-06-22T12:02:45;31.36;51.33
64111;DHT22;50401;48.188;11.566;2023-06-22T12:05:11;31.66;50.96
64111;DHT22;50401;48.188;11.566;2023-06-22T12:07:37;31.87;49.95
64111;DHT22;50401;48.188;11.566;2023-06-22T12:10:03;31.84;50.42
64111;DHT22;50401;48.188;11.566;2023-06-22T12:12:29;31.94;50.35
64111;DHT22;50401;48.188;11.566;2023-06-22T12:14:55;31.85;50.09
64111;DHT22;50401;48.188;11.566;2023-06-22T12:17:20;31.87;49.87
64111;DHT22;50401;48.188;11.566;2023-06-22T12:19:45;32.06;49.98
64111;DHT22;50401;48.188;11.566;2023-06-22T12:22:11;31.99;50.24
64111;DHT22;50401;48.188;11.566;2023-06-22T12:24:36;31.92;50.72
64111;DHT22;50401;48.188;11.566;2023-06-22T12:27:02;32.01;50.61
64111;DHT22;50401;48.188;11.566;2023-06-22T12:29:29;32.06;50.82
64111;DHT22;50401;48.188;11.566;2023-06-22T12:31:54;32.01;51.13
64111;DHT22;50401;48.188;11.566;2023-06-22T12:34:20;31.98;51.13
64111;DHT22;50401;48.188;11.566;2023-06-22T12:36:45;32.01;50.74
64111;DHT22;50401;48.188;11.566;2023-06-22T12:39:13;32.09;50.59
64111;DHT22;50401;48.188;11.566;2023-06-22T12:41:38;32.11;50.67
64111;DHT22;50401;48.188;11.566;2023-06-22T12:44:04;32.09;50.58
64111;DHT22;50401;48.188;11.566;2023-06-22T12:46:29;32.11;50.11
64111;DHT22;50401;48.188;11.566;2023-06-22T12:49:01;32.11;50.41
64111;DHT22;50401;48.188;11.566;2023-06-22T12:51:27;32.05;50.96
64111;DHT22;50401;48.188;11.566;2023-06-22T12:53:52;32.09;50.53
64111;DHT22;50401;48.188;11.566;2023-06-22T12:56:17;32.12;50.40
64111;DHT22;50401;48.188;11.566;2023-06-22T12:58:43;32.19;49.73
64111;DHT22;50401;48.188;11.566;2023-06-22T13:01:08;32.25;49.50
64111;DHT22;50401;48.188;11.566;2023-06-22T13:03:34;32.18;50.40
64111;DHT22;50401;48.188;11.566;2023-06-22T13:05:59;32.09;50.55
64111;DHT22;50401;48.188;11.566;2023-06-22T13:08:24;32.21;50.62
64111;DHT22;50401;48.188;11.566;2023-06-22T13:10:50;32.30;50.64
64111;DHT22;50401;48.188;11.566;2023-06-22T13:13:15;32.32;50.64
64111;DHT22;50401;48.188;11.566;2023-06-22T13:15:41;32.40;50.47
64111;DHT22;50401;48.188;11.566;2023-06-22T13:18:06;32.50;50.16
64111;DHT22;50401;48.188;11.566;2023-06-22T13:20:31;32.43;49.83
64111;DHT22;50401;48.188;11.566;2023-06-22T13:22:57;32.49;49.68
64111;DHT22;50401;48.188;11.566;2023-06-22T13:25:22;32.41;49.85
64111;DHT22;50401;48.188;11.566;2023-06-22T13:27:51;32.32;49.41
64111;DHT22;50401;48.188;11.566;2023-06-22T13:30:17;32.37;49.60
64111;DHT22;50401;48.188;11.566;2023-06-22T13:32:42;32.57;48.73
64111;DHT22;50401;48.188;11.566;2023-06-22T13:35:09;32.57;48.56
64111;DHT22;50401;48.188;11.566;2023-06-22T13:37:35;32.36;48.92
64111;DHT22;50401;48.188;11.566;2023-06-22T13:40:00;32.26;49.74
64111;DHT22;50401;48.188;11.566;2023-06-22T13:42:28;32.35;49.10
64111;DHT22;50401;48.188;11.566;2023-06-22T13:44:53;32.47;49.39
64111;DHT22;50401;48.188;11.566;2023-06-22T13:47:19;32.53;49.47
64111;DHT22;50401;48.188;11.566;2023-06-22T13:49:50;32.70;49.48
64111;DHT22;50401;48.188;11.566;2023-06-22T13:52:18;32.80;48.84
64111;DHT22;50401;48.188;11.566;2023-06-22T13:54:44;32.64;48.97
64111;DHT22;50401;48.188;11.566;2023-06-22T13:57:09;32.64;48.88
64111;DHT22;50401;48.188;11.566;2023-06-22T13:59:35;32.61;48.58
64111;DHT22;50401;48.188;11.566;2023-06-22T14:02:00;32.55;48.44
64111;DHT22;50401;48.188;11.566;2023-06-22T14:04:25;32.49;48.49
64111;DHT22;50401;48.188;11.566;2023-06-22T14:06:51;32.60;48.72
64111;DHT22;50401;48.188;11.566;2023-06-22T14:09:17;32.63;48.36
64111;DHT22;50401;48.188;11.566;2023-06-22T14:11:42;32.60;48.56
64111;DHT22;50401;48.188;11.566;2023-06-22T14:14:07;32.56;48.57
64111;DHT22;50401;48.188;11.566;2023-06-22T14:16:34;32.46;48.77
64111;DHT22;50401;48.188;11.566;2023-06-22T14:18:59;32.44;48.81
64111;DHT22;50401;48.188;11.566;2023-06-22T14:21:25;32.43;48.30
64111;DHT22;50401;48.188;11.566;2023-06-22T14:23:51;32.43;48.12
64111;DHT22;50401;48.188;11.566;2023-06-22T14:26:16;32.41;48.00
64111;DHT22;50401;48.188;11.566;2023-06-22T14:28:45;32.59;47.45
64111;DHT22;50401;48.188;11.566;2023-06-22T14:31:14;32.63;47.59
64111;DHT22;50401;48.188;11.566;2023-06-22T14:33:40;32.59;47.33
64111;DHT22;50401;48.188;11.566;2023-06-22T14:36:05;32.56;46.93
64111;DHT22;50401;48.188;11.566;2023-06-22T14:38:30;32.53;47.22
64111;DHT22;50401;48.188;11.566;2023-06-22T14:40:56;32.61;46.40
64111;DHT22;50401;48.188;11.566;2023-06-22T14:43:21;32.68;45.52
64111;DHT22;50401;48.188;11.566;2023-06-22T14:45:47;32.75;45.19
64111;DHT22;50401;48.188;11.566;2023-06-22T14:48:12;32.75;46.34
64111;DHT22;50401;48.188;11.566;2023-06-22T14:50:37;32.74;46.38
64111;DHT22;50401;48.188;11.566;2023-06-22T14:53:03;32.75;46.04
64111;DHT22;50401;48.188;11.566;2023-06-22T14:55:28;32.71;44.67
64111;DHT22;50401;48.188;11.566;2023-06-22T14:57:53;32.61;45.00
64111;DHT22;50401;48.188;11.566;2023-06-22T15:00:19;32.53;43.79
64111;DHT22;50401;48.188;11.566;2023-06-22T15:02:44;32.52;43.00
64111;DHT22;50401;48.188;11.566;2023-06-22T15:05:10;32.52;43.14
64111;DHT22;50401;48.188;11.566;2023-06-22T15:07:35;32.57;43.32
64111;DHT22;50401;48.188;11.566;2023-06-22T15:10:01;32.57;42.18
64111;DHT22;50401;48.188;11.566;2023-06-22T15:12:26;32.60;42.49
64111;DHT22;50401;48.188;11.566;2023-06-22T15:14:52;32.71;43.65